sensor_id;sensor_type;location;lat;lon;timestamp;temperature;humidity
74420;DHT22;62855;50.718;-2.460;2022-10-16T00:02:01;51.26;84.00
74420;DHT22;62855;50.718;-2.460;2022-10-16T00:05:00;51.26;84.00
74420;DHT22;62855;50.718;-2.460;2022-10-16T00:08:00;51.26;84.00
74420;DHT22;62855;50.718;-2.460;2022-10-16T00:11:02;51.26;84.00
74420;DHT22;62855;50.718;-2.460;2022-10-16T00:14:02;51.44;84.00
74420;DHT22;62855;50.718;-2.460;2022-10-16T00:17:00;51.62;84.00
74420;DHT22;62855;50.718;-2.460;2022-10-16T00:20:00;51.62;84.00
74420;DHT22;62855;50.718;-2.460;2022-10-16T00:23:00;51.62;83.00
74420;DHT22;62855;50.718;-2.460;2022-10-16T00:26:04;51.62;83.00
74420;DHT22;62855;50.718;-2.460;2022-10-16T00:29:01;51.80;83.00
74420;DHT22;62855;50.718;-2.460;2022-10-16T00:32:00;51.80;84.00
74420;DHT22;62855;50.718;-2.460;2022-10-16T00:35:00;51.98;83.00
74420;DHT22;62855;50.718;-2.460;2022-10-16T00:38:01;52.16;83.00
74420;DHT22;62855;50.718;-2.460;2022-10-16T00:41:01;52.34;83.00
74420;DHT22;62855;50.718;-2.460;2022-10-16T00:44:03;52.34;82.00
74420;DHT22;62855;50.718;-2.460;2022-10-16T00:47:01;52.52;82.00
74420;DHT22;62855;50.718;-2.460;2022-10-16T00:50:06;52.52;82.00
74420;DHT22;62855;50.718;-2.460;2022-10-16T00:53:01;52.52;82.00
74420;DHT22;62855;50.718;-2.460;2022-10-16T00:56:02;52.52;82.00
74420;DHT22;62855;50.718;-2.460;2022-10-16T00:59:03;52.52;82.00
74420;DHT22;62855;50.718;-2.460;2022-10-16T01:02:02;52.52;82.00
74420;DHT22;62855;50.718;-2.460;2022-10-16T01:05:02;52.52;82.00
74420;DHT22;62855;50.718;-2.460;2022-10-16T01:08:08;52.70;81.00
74420;DHT22;62855;50.718;-2.460;2022-10-16T01:11:08;52.88;81.00
74420;DHT22;62855;50.718;-2.460;2022-10-16T01:14:06;52.88;81.00
74420;DHT22;62855;50.718;-2.460;2022-10-16T01:17:04;53.06;81.00
74420;DHT22;62855;50.718;-2.460;2022-10-16T01:20:08;53.06;81.00
74420;DHT22;62855;50.718;-2.460;2022-10-16T01:23:21;53.06;81.00
74420;DHT22;62855;50.718;-2.460;2022-10-16T01:26:12;53.24;81.00
74420;DHT22;62855;50.718;-2.460;2022-10-16T01:29:03;53.42;76.00
74420;DHT22;62855;50.718;-2.460;2022-10-16T01:32:06;53.42;74.00
74420;DHT22;62855;50.718;-2.460;2022-10-16T01:35:04;53.60;72.00
74420;DHT22;62855;50.718;-2.460;2022-10-16T01:38:03;53.60;72.00
74420;DHT22;62855;50.718;-2.460;2022-10-16T01:41:02;53.60;72.00
74420;DHT22;62855;50.718;-2.460;2022-10-16T01:44:03;53.42;72.00
74420;DHT22;62855;50.718;-2.460;2022-10-16T01:47:00;53.24;75.00
74420;DHT22;62855;50.718;-2.460;2022-10-16T01:50:01;53.24;75.00
74420;DHT22;62855;50.718;-2.460;2022-10-16T01:53:02;53.06;76.00
74420;DHT22;62855;50.718;-2.460;2022-10-16T01:56:02;53.06;76.00
74420;DHT22;62855;50.718;-2.460;2022-10-16T01:59:03;53.06;76.00
74420;DHT22;62855;50.718;-2.460;2022-10-16T02:02:06;53.06;77.00
74420;DHT22;62855;50.718;-2.460;2022-10-16T02:05:04;52.88;77.00
74420;DHT22;62855;50.718;-2.460;2022-10-16T02:08:00;52.88;77.00
74420;DHT22;62855;50.718;-2.460;2022-10-16T02:11:01;52.70;76.00
74420;DHT22;62855;50.718;-2.460;2022-10-16T02:14:04;52.70;76.00
74420;DHT22;62855;50.718;-2.460;2022-10-16T02:17:00;52.70;75.00
74420;DHT22;62855;50.718;-2.460;2022-10-16T02:20:00;52.70;74.00
74420;DHT22;62855;50.718;-2.460;2022-10-16T02:23:01;52.88;73.00
74420;DHT22;62855;50.718;-2.460;2022-10-16T02:26:02;52.88;73.00
74420;DHT22;62855;50.718;-2.460;2022-10-16T02:29:05;52.70;74.00
74420;DHT22;62855;50.718;-2.460;2022-10-16T02:32:03;52.70;74.00
74420;DHT22;62855;50.718;-2.460;2022-10-16T02:35:01;52.70;74.00
74420;DHT22;62855;50.718;-2.460;2022-10-16T02:38:00;52.70;74.00
74420;DHT22;62855;50.718;-2.460;2022-10-16T02:41:01;52.70;74.00
74420;DHT22;62855;50.718;-2.460;2022-10-16T02:44:01;52.70;75.00
74420;DHT22;62855;50.718;-2.460;2022-10-16T02:47:00;52.70;75.00
74420;DHT22;62855;50.718;-2.460;2022-10-16T02:50:00;52.88;75.00
74420;DHT22;62855;50.718;-2.460;2022-10-16T02:53:00;52.88;75.00
74420;DHT22;62855;50.718;-2.460;2022-10-16T02:56:00;53.06;75.00
74420;DHT22;62855;50.718;-2.460;2022-10-16T02:59:00;53.06;75.00
74420;DHT22;62855;50.718;-2.460;2022-10-16T03:02:01;53.06;76.00
74420;DHT22;62855;50.718;-2.460;2022-10-16T03:05:01;53.24;76.00
74420;DHT22;62855;50.718;-2.460;2022-10-16T03:08:00;53.24;76.00
74420;DHT22;62855;50.718;-2.460;2022-10-16T03:11:00;53.24;76.00
74420;DHT22;62855;50.718;-2.460;2022-10-16T03:14:00;53.24;75.00
74420;DHT22;62855;50.718;-2.460;2022-10-16T03:17:01;53.24;75.00
74420;DHT22;62855;50.718;-2.460;2022-10-16T03:20:01;53.24;75.00
74420;DHT22;62855;50.718;-2.460;2022-10-16T03:23:01;53.24;75.00
74420;DHT22;62855;50.718;-2.460;2022-10-16T03:26:01;53.24;74.00
74420;DHT22;62855;50.718;-2.460;2022-10-16T03:29:00;53.24;74.00
74420;DHT22;62855;50.718;-2.460;2022-10-16T03:32:00;53.06;74.00
74420;DHT22;62855;50.718;-2.460;2022-10-16T03:35:00;53.06;74.00
74420;DHT22;62855;50.718;-2.460;2022-10-16T03:38:00;53.06;74.00
74420;DHT22;62855;50.718;-2.460;2022-10-16T03:41:00;52.88;74.00
74420;DHT22;62855;50.718;-2.460;2022-10-16T03:44:01;52.88;74.00
74420;DHT22;62855;50.718;-2.460;2022-10-16T03:47:01;52.88;75.00
74420;DHT22;62855;50.718;-2.460;2022-10-16T03:50:00;52.70;75.00
74420;DHT22;62855;50.718;-2.460;2022-10-16T03:53:00;52.70;75.00
74420;DHT22;62855;50.718;-2.460;2022-10-16T03:56:00;52.70;75.00
74420;DHT22;62855;50.718;-2.460;2022-10-16T03:59:00;52.70;75.00
74420;DHT22;62855;50.718;-2.460;2022-10-16T04:02:01;52.70;75.00
74420;DHT22;62855;50.718;-2.460;2022-10-16T04:05:01;52.88;75.00
74420;DHT22;62855;50.718;-2.460;2022-10-16T04:08:00;52.88;75.00
74420;DHT22;62855;50.718;-2.460;2022-10-16T04:11:00;52.70;75.00
74420;DHT22;62855;50.718;-2.460;2022-10-16T04:14:00;52.70;75.00
74420;DHT22;62855;50.718;-2.460;2022-10-16T04:17:00;52.70;76.00
74420;DHT22;62855;50.718;-2.460;2022-10-16T04:20:01;52.70;76.00
74420;DHT22;62855;50.718;-2.460;2022-10-16T04:23:00;52.88;75.00
74420;DHT22;62855;50.718;-2.460;2022-10-16T04:26:00;52.70;75.00
74420;DHT22;62855;50.718;-2.460;2022-10-16T04:29:00;52.70;75.00
74420;DHT22;62855;50.718;-2.460;2022-10-16T04:32:00;52.70;76.00
74420;DHT22;62855;50.718;-2.460;2022-10-16T04:35:00;52.70;76.00
74420;DHT22;62855;50.718;-2.460;2022-10-16T04:38:01;52.70;76.00
74420;DHT22;62855;50.718;-2.460;2022-10-16T04:41:01;52.52;76.00
74420;DHT22;62855;50.718;-2.460;2022-10-16T04:44:01;52.52;76.00
74420;DHT22;62855;50.718;-2.460;2022-10-16T04:47:01;52.34;76.00
74420;DHT22;62855;50.718;-2.460;2022-10-16T04:50:00;52.34;77.00
74420;DHT22;62855;50.718;-2.460;2022-10-16T04:53:00;52.16;77.00
74420;DHT22;62855;50.718;-2.460;2022-10-16T04:56:00;52.16;77.00
74420;DHT22;62855;50.718;-2.460;2022-10-16T04:59:00;52.16;77.00
74420;DHT22;62855;50.718;-2.460;2022-10-16T05:02:01;51.98;77.00
74420;DHT22;62855;50.718;-2.460;2022-10-16T05:05:01;51.98;78.00
74420;DHT22;62855;50.718;-2.460;2022-10-16T05:08:01;51.80;78.00
74420;DHT22;62855;50.718;-2.460;2022-10-16T05:11:01;51.80;79.00
74420;DHT22;62855;50.718;-2.460;2022-10-16T05:14:01;51.80;79.00
74420;DHT22;62855;50.718;-2.460;2022-10-16T05:17:00;51.80;79.00
74420;DHT22;62855;50.718;-2.460;2022-10-16T05:20:00;51.62;79.00
74420;DHT22;62855;50.718;-2.460;2022-10-16T05:23:00;51.44;79.00
74420;DHT22;62855;50.718;-2.460;2022-10-16T05:26:00;51.26;79.00
74420;DHT22;62855;50.718;-2.460;2022-10-16T05:29:01;51.08;79.00
74420;DHT22;62855;50.718;-2.460;2022-10-16T05:32:00;50.90;79.00
74420;DHT22;62855;50.718;-2.460;2022-10-16T05:35:00;50.90;80.00
74420;DHT22;62855;50.718;-2.460;2022-10-16T05:38:01;50.72;80.00
74420;DHT22;62855;50.718;-2.460;2022-10-16T05:41:01;50.72;80.00
74420;DHT22;62855;50.718;-2.460;2022-10-16T05:44:04;50.54;80.00
74420;DHT22;62855;50.718;-2.460;2022-10-16T05:47:01;50.54;80.00
74420;DHT22;62855;50.718;-2.460;2022-10-16T05:50:01;50.72;80.00
74420;DHT22;62855;50.718;-2.460;2022-10-16T05:53:00;50.72;80.00
74420;DHT22;62855;50.718;-2.460;2022-10-16T05:56:01;50.72;79.00
74420;DHT22;62855;50.718;-2.460;2022-10-16T05:59:00;50.72;79.00
74420;DHT22;62855;50.718;-2.460;2022-10-16T06:02:00;50.72;79.00
74420;DHT22;62855;50.718;-2.460;2022-10-16T06:05:00;50.72;78.00
74420;DHT22;62855;50.718;-2.460;2022-10-16T06:08:01;50.72;78.00
74420;DHT22;62855;50.718;-2.460;2022-10-16T06:11:01;50.72;78.00
74420;DHT22;62855;50.718;-2.460;2022-10-16T06:14:01;50.72;78.00
74420;DHT22;62855;50.718;-2.460;2022-10-16T06:17:00;50.54;78.00
74420;DHT22;62855;50.718;-2.460;2022-10-16T06:20:00;50.54;78.00
74420;DHT22;62855;50.718;-2.460;2022-10-16T06:23:00;50.36;78.00
74420;DHT22;62855;50.718;-2.460;2022-10-16T06:26:04;50.36;78.00
74420;DHT22;62855;50.718;-2.460;2022-10-16T06:29:01;50.36;78.00
74420;DHT22;62855;50.718;-2.460;2022-10-16T06:32:01;50.18;78.00
74420;DHT22;62855;50.718;-2.460;2022-10-16T06:35:01;50.18;79.00
74420;DHT22;62855;50.718;-2.460;2022-10-16T06:38:01;50.36;79.00
74420;DHT22;62855;50.718;-2.460;2022-10-16T06:41:00;50.36;80.00
74420;DHT22;62855;50.718;-2.460;2022-10-16T06:44:00;50.36;80.00
74420;DHT22;62855;50.718;-2.460;2022-10-16T06:47:00;50.36;80.00
74420;DHT22;62855;50.718;-2.460;2022-10-16T06:50:00;50.36;80.00
74420;DHT22;62855;50.718;-2.460;2022-10-16T06:53:00;50.18;80.00
74420;DHT22;62855;50.718;-2.460;2022-10-16T06:56:07;50.18;80.00
74420;DHT22;62855;50.718;-2.460;2022-10-16T06:59:01;50.18;80.00
74420;DHT22;62855;50.718;-2.460;2022-10-16T07:02:00;50.00;80.00
74420;DHT22;62855;50.718;-2.460;2022-10-16T07:05:00;50.00;80.00
74420;DHT22;62855;50.718;-2.460;2022-10-16T07:08:01;50.00;80.00
74420;DHT22;62855;50.718;-2.460;2022-10-16T07:11:02;50.00;80.00
74420;DHT22;62855;50.718;-2.460;2022-10-16T07:14:01;50.00;80.00
74420;DHT22;62855;50.718;-2.460;2022-10-16T07:17:00;50.18;80.00
74420;DHT22;62855;50.718;-2.460;2022-10-16T07:20:01;50.36;81.00
74420;DHT22;62855;50.718;-2.460;2022-10-16T07:23:01;50.36;81.00
74420;DHT22;62855;50.718;-2.460;2022-10-16T07:26:00;50.54;81.00
74420;DHT22;62855;50.718;-2.460;2022-10-16T07:29:01;50.54;81.00
74420;DHT22;62855;50.718;-2.460;2022-10-16T07:32:01;50.72;81.00
74420;DHT22;62855;50.718;-2.460;2022-10-16T07:35:00;50.90;81.00
74420;DHT22;62855;50.718;-2.460;2022-10-16T07:38:00;51.08;81.00
74420;DHT22;62855;50.718;-2.460;2022-10-16T07:41:02;51.26;81.00
74420;DHT22;62855;50.718;-2.460;2022-10-16T07:44:00;51.44;81.00
74420;DHT22;62855;50.718;-2.460;2022-10-16T07:47:00;51.80;81.00
74420;DHT22;62855;50.718;-2.460;2022-10-16T07:50:00;51.98;81.00
74420;DHT22;62855;50.718;-2.460;2022-10-16T07:53:00;52.34;81.00
74420;DHT22;62855;50.718;-2.460;2022-10-16T07:56:02;52.70;81.00
74420;DHT22;62855;50.718;-2.460;2022-10-16T07:59:01;53.06;80.00
74420;DHT22;62855;50.718;-2.460;2022-10-16T08:02:00;52.70;78.00
74420;DHT22;62855;50.718;-2.460;2022-10-16T08:05:01;52.16;76.00
74420;DHT22;62855;50.718;-2.460;2022-10-16T08:08:01;51.98;76.00
74420;DHT22;62855;50.718;-2.460;2022-10-16T08:11:00;51.98;76.00
74420;DHT22;62855;50.718;-2.460;2022-10-16T08:14:01;51.98;77.00
74420;DHT22;62855;50.718;-2.460;2022-10-16T08:17:01;52.16;77.00
74420;DHT22;62855;50.718;-2.460;2022-10-16T08:20:01;52.34;77.00
74420;DHT22;62855;50.718;-2.460;2022-10-16T08:23:01;52.52;78.00
74420;DHT22;62855;50.718;-2.460;2022-10-16T08:26:04;52.88;78.00
74420;DHT22;62855;50.718;-2.460;2022-10-16T08:29:00;53.24;78.00
74420;DHT22;62855;50.718;-2.460;2022-10-16T08:32:01;53.60;75.00
74420;DHT22;62855;50.718;-2.460;2022-10-16T08:35:01;53.60;74.00
74420;DHT22;62855;50.718;-2.460;2022-10-16T08:38:03;53.96;74.00
74420;DHT22;62855;50.718;-2.460;2022-10-16T08:41:17;54.14;74.00
74420;DHT22;62855;50.718;-2.460;2022-10-16T08:44:24;54.14;74.00
74420;DHT22;62855;50.718;-2.460;2022-10-16T08:47:08;54.50;74.00
74420;DHT22;62855;50.718;-2.460;2022-10-16T08:50:08;54.68;74.00
74420;DHT22;62855;50.718;-2.460;2022-10-16T08:53:00;54.86;74.00
74420;DHT22;62855;50.718;-2.460;2022-10-16T08:56:00;55.22;74.00
74420;DHT22;62855;50.718;-2.460;2022-10-16T08:59:00;55.40;74.00
74420;DHT22;62855;50.718;-2.460;2022-10-16T09:02:00;55.76;74.00
74420;DHT22;62855;50.718;-2.460;2022-10-16T09:05:11;55.94;73.00
74420;DHT22;62855;50.718;-2.460;2022-10-16T09:08:07;56.12;73.00
74420;DHT22;62855;50.718;-2.460;2022-10-16T09:11:07;56.12;73.00
74420;DHT22;62855;50.718;-2.460;2022-10-16T09:14:06;56.12;72.00
74420;DHT22;62855;50.718;-2.460;2022-10-16T09:17:07;55.94;72.00
74420;DHT22;62855;50.718;-2.460;2022-10-16T09:20:12;55.94;72.00
74420;DHT22;62855;50.718;-2.460;2022-10-16T09:23:13;55.94;72.00
74420;DHT22;62855;50.718;-2.460;2022-10-16T09:26:01;55.94;72.00
74420;DHT22;62855;50.718;-2.460;2022-10-16T09:29:02;55.94;72.00
74420;DHT22;62855;50.718;-2.460;2022-10-16T09:32:11;56.12;72.00
74420;DHT22;62855;50.718;-2.460;2022-10-16T09:35:01;56.12;72.00
74420;DHT22;62855;50.718;-2.460;2022-10-16T09:38:00;56.12;72.00
74420;DHT22;62855;50.718;-2.460;2022-10-16T09:41:02;55.94;72.00
74420;DHT22;62855;50.718;-2.460;2022-10-16T09:44:01;55.58;72.00
74420;DHT22;62855;50.718;-2.460;2022-10-16T09:47:02;55.40;72.00
74420;DHT22;62855;50.718;-2.460;2022-10-16T09:50:04;55.40;73.00
74420;DHT22;62855;50.718;-2.460;2022-10-16T09:53:05;55.40;73.00
74420;DHT22;62855;50.718;-2.460;2022-10-16T09:56:00;55.40;73.00
74420;DHT22;62855;50.718;-2.460;2022-10-16T09:59:08;55.40;74.00
74420;DHT22;62855;50.718;-2.460;2022-10-16T10:02:04;55.40;74.00
74420;DHT22;62855;50.718;-2.460;2022-10-16T10:05:01;55.58;74.00
74420;DHT22;62855;50.718;-2.460;2022-10-16T10:08:01;55.58;74.00
74420;DHT22;62855;50.718;-2.460;2022-10-16T10:11:01;55.76;74.00
74420;DHT22;62855;50.718;-2.460;2022-10-16T10:14:04;55.94;74.00
74420;DHT22;62855;50.718;-2.460;2022-10-16T10:17:13;56.12;75.00
74420;DHT22;62855;50.718;-2.460;2022-10-16T10:20:15;56.30;75.00
74420;DHT22;62855;50.718;-2.460;2022-10-16T10:23:01;56.84;74.00
74420;DHT22;62855;50.718;-2.460;2022-10-16T10:26:05;57.20;74.00
74420;DHT22;62855;50.718;-2.460;2022-10-16T10:29:06;57.56;73.00
74420;DHT22;62855;50.718;-2.460;2022-10-16T10:32:10;57.92;73.00
74420;DHT22;62855;50.718;-2.460;2022-10-16T10:35:11;58.10;72.00
74420;DHT22;62855;50.718;-2.460;2022-10-16T10:38:09;58.10;71.00
74420;DHT22;62855;50.718;-2.460;2022-10-16T10:41:09;58.28;71.00
74420;DHT22;62855;50.718;-2.460;2022-10-16T10:44:09;58.46;70.00
74420;DHT22;62855;50.718;-2.460;2022-10-16T10:47:06;58.64;70.00
74420;DHT22;62855;50.718;-2.460;2022-10-16T10:50:07;58.82;68.00
74420;DHT22;62855;50.718;-2.460;2022-10-16T10:53:09;58.82;68.00
74420;DHT22;62855;50.718;-2.460;2022-10-16T10:56:07;59.18;68.00
74420;DHT22;62855;50.718;-2.460;2022-10-16T10:59:11;59.54;66.00
74420;DHT22;62855;50.718;-2.460;2022-10-16T11:02:04;59.54;65.00
74420;DHT22;62855;50.718;-2.460;2022-10-16T11:05:15;59.54;64.00
74420;DHT22;62855;50.718;-2.460;2022-10-16T11:08:04;59.54;64.00
74420;DHT22;62855;50.718;-2.460;2022-10-16T11:11:03;59.54;64.00
74420;DHT22;62855;50.718;-2.460;2022-10-16T11:14:03;59.54;64.00
74420;DHT22;62855;50.718;-2.460;2022-10-16T11:17:04;59.54;65.00
74420;DHT22;62855;50.718;-2.460;2022-10-16T11:20:05;59.72;64.00
74420;DHT22;62855;50.718;-2.460;2022-10-16T11:23:06;59.72;63.00
74420;DHT22;62855;50.718;-2.460;2022-10-16T11:26:04;59.72;63.00
74420;DHT22;62855;50.718;-2.460;2022-10-16T11:29:01;59.90;64.00
74420;DHT22;62855;50.718;-2.460;2022-10-16T11:32:05;59.90;64.00
74420;DHT22;62855;50.718;-2.460;2022-10-16T11:35:05;60.08;63.00
74420;DHT22;62855;50.718;-2.460;2022-10-16T11:38:02;60.08;64.00
74420;DHT22;62855;50.718;-2.460;2022-10-16T11:41:03;60.26;64.00
74420;DHT22;62855;50.718;-2.460;2022-10-16T11:44:13;60.08;63.00
74420;DHT22;62855;50.718;-2.460;2022-10-16T11:47:09;60.26;63.00
74420;DHT22;62855;50.718;-2.460;2022-10-16T11:50:05;60.26;63.00
74420;DHT22;62855;50.718;-2.460;2022-10-16T11:53:04;60.26;63.00
74420;DHT22;62855;50.718;-2.460;2022-10-16T11:56:00;60.44;63.00
74420;DHT22;62855;50.718;-2.460;2022-10-16T11:59:03;60.44;63.00
74420;DHT22;62855;50.718;-2.460;2022-10-16T12:02:20;60.62;63.00
74420;DHT22;62855;50.718;-2.460;2022-10-16T12:05:11;60.62;62.00
74420;DHT22;62855;50.718;-2.460;2022-10-16T12:08:08;60.62;62.00
74420;DHT22;62855;50.718;-2.460;2022-10-16T12:11:19;60.62;62.00
74420;DHT22;62855;50.718;-2.460;2022-10-16T12:14:07;60.62;62.00
74420;DHT22;62855;50.718;-2.460;2022-10-16T12:17:02;60.62;61.00
74420;DHT22;62855;50.718;-2.460;2022-10-16T12:20:22;60.62;61.00
74420;DHT22;62855;50.718;-2.460;2022-10-16T12:23:02;60.80;61.00
74420;DHT22;62855;50.718;-2.460;2022-10-16T12:26:00;61.16;60.00
74420;DHT22;62855;50.718;-2.460;2022-10-16T12:29:14;61.16;60.00
74420;DHT22;62855;50.718;-2.460;2022-10-16T12:32:01;61.16;60.00
74420;DHT22;62855;50.718;-2.460;2022-10-16T12:35:01;61.16;61.00
74420;DHT22;62855;50.718;-2.460;2022-10-16T12:38:06;61.34;62.00
74420;DHT22;62855;50.718;-2.460;2022-10-16T12:41:03;61.88;61.00
74420;DHT22;62855;50.718;-2.460;2022-10-16T12:44:02;61.88;60.00
74420;DHT22;62855;50.718;-2.460;2022-10-16T12:47:01;61.70;61.00
74420;DHT22;62855;50.718;-2.460;2022-10-16T12:50:01;61.88;62.00
74420;DHT22;62855;50.718;-2.460;2022-10-16T12:53:02;61.70;62.00
74420;DHT22;62855;50.718;-2.460;2022-10-16T12:56:08;61.52;62.00
74420;DHT22;62855;50.718;-2.460;2022-10-16T12:59:07;61.70;63.00
74420;DHT22;62855;50.718;-2.460;2022-10-16T13:02:20;61.70;63.00
74420;DHT22;62855;50.718;-2.460;2022-10-16T13:05:10;61.52;63.00
74420;DHT22;62855;50.718;-2.460;2022-10-16T13:08:13;61.52;64.00
74420;DHT22;62855;50.718;-2.460;2022-10-16T13:11:05;61.52;64.00
74420;DHT22;62855;50.718;-2.460;2022-10-16T13:14:17;61.16;64.00
74420;DHT22;62855;50.718;-2.460;2022-10-16T13:17:07;61.16;64.00
74420;DHT22;62855;50.718;-2.460;2022-10-16T13:20:07;60.80;65.00
74420;DHT22;62855;50.718;-2.460;2022-10-16T13:23:08;60.62;65.00
74420;DHT22;62855;50.718;-2.460;2022-10-16T13:26:09;60.62;66.00
74420;DHT22;62855;50.718;-2.460;2022-10-16T13:29:01;60.62;66.00
74420;DHT22;62855;50.718;-2.460;2022-10-16T13:32:01;60.44;68.00
74420;DHT22;62855;50.718;-2.460;2022-10-16T13:35:01;60.44;68.00
74420;DHT22;62855;50.718;-2.460;2022-10-16T13:38:08;60.44;69.00
74420;DHT22;62855;50.718;-2.460;2022-10-16T13:41:02;60.44;70.00
74420;DHT22;62855;50.718;-2.460;2022-10-16T13:44:00;60.26;70.00
74420;DHT22;62855;50.718;-2.460;2022-10-16T13:47:01;60.26;70.00
74420;DHT22;62855;50.718;-2.460;2022-10-16T13:50:05;60.26;70.00
74420;DHT22;62855;50.718;-2.460;2022-10-16T13:53:05;60.08;70.00
74420;DHT22;62855;50.718;-2.460;2022-10-16T13:56:03;59.90;70.00
74420;DHT22;62855;50.718;-2.460;2022-10-16T13:59:02;59.72;70.00
74420;DHT22;62855;50.718;-2.460;2022-10-16T14:02:11;59.72;71.00
74420;DHT22;62855;50.718;-2.460;2022-10-16T14:05:02;59.54;71.00
74420;DHT22;62855;50.718;-2.460;2022-10-16T14:08:00;59.54;71.00
74420;DHT22;62855;50.718;-2.460;2022-10-16T14:11:01;59.36;71.00
74420;DHT22;62855;50.718;-2.460;2022-10-16T14:14:01;59.36;71.00
74420;DHT22;62855;50.718;-2.460;2022-10-16T14:17:02;59.18;71.00
74420;DHT22;62855;50.718;-2.460;2022-10-16T14:20:03;59.18;71.00
74420;DHT22;62855;50.718;-2.460;2022-10-16T14:23:01;59.00;71.00
74420;DHT22;62855;50.718;-2.460;2022-10-16T14:26:14;59.00;71.00
74420;DHT22;62855;50.718;-2.460;2022-10-16T14:29:08;59.00;71.00
74420;DHT22;62855;50.718;-2.460;2022-10-16T14:32:01;58.82;72.00
74420;DHT22;62855;50.718;-2.460;2022-10-16T14:35:01;58.46;72.00
74420;DHT22;62855;50.718;-2.460;2022-10-16T14:38:02;58.28;73.00
74420;DHT22;62855;50.718;-2.460;2022-10-16T14:41:00;58.10;74.00
74420;DHT22;62855;50.718;-2.460;2022-10-16T14:44:02;57.92;74.00
74420;DHT22;62855;50.718;-2.460;2022-10-16T14:47:12;57.74;75.00
74420;DHT22;62855;50.718;-2.460;2022-10-16T14:50:00;57.56;76.00
74420;DHT22;62855;50.718;-2.460;2022-10-16T14:53:00;57.20;77.00
74420;DHT22;62855;50.718;-2.460;2022-10-16T14:56:06;57.02;78.00
74420;DHT22;62855;50.718;-2.460;2022-10-16T14:59:00;56.84;80.00
74420;DHT22;62855;50.718;-2.460;2022-10-16T15:02:01;56.84;80.00
74420;DHT22;62855;50.718;-2.460;2022-10-16T15:05:11;56.66;80.00
74420;DHT22;62855;50.718;-2.460;2022-10-16T15:08:01;56.66;81.00
74420;DHT22;62855;50.718;-2.460;2022-10-16T15:11:00;56.48;81.00
74420;DHT22;62855;50.718;-2.460;2022-10-16T15:14:00;56.48;82.00
74420;DHT22;62855;50.718;-2.460;2022-10-16T15:17:00;56.30;83.00
74420;DHT22;62855;50.718;-2.460;2022-10-16T15:20:00;56.30;83.00
74420;DHT22;62855;50.718;-2.460;2022-10-16T15:23:02;56.30;84.00
74420;DHT22;62855;50.718;-2.460;2022-10-16T15:26:00;56.30;84.00
74420;DHT22;62855;50.718;-2.460;2022-10-16T15:29:00;56.30;85.00
74420;DHT22;62855;50.718;-2.460;2022-10-16T15:32:00;56.30;86.00
74420;DHT22;62855;50.718;-2.460;2022-10-16T15:35:01;56.30;87.00
74420;DHT22;62855;50.718;-2.460;2022-10-16T15:38:01;56.48;88.00
74420;DHT22;62855;50.718;-2.460;2022-10-16T15:41:01;56.48;88.00
74420;DHT22;62855;50.718;-2.460;2022-10-16T15:44:01;56.48;89.00
74420;DHT22;62855;50.718;-2.460;2022-10-16T15:47:00;56.48;89.00
74420;DHT22;62855;50.718;-2.460;2022-10-16T15:50:00;56.48;89.00
74420;DHT22;62855;50.718;-2.460;2022-10-16T15:53:00;56.48;90.00
74420;DHT22;62855;50.718;-2.460;2022-10-16T15:56:01;56.48;90.00
74420;DHT22;62855;50.718;-2.460;2022-10-16T15:59:01;56.48;90.00
74420;DHT22;62855;50.718;-2.460;2022-10-16T16:02:00;56.30;90.00
74420;DHT22;62855;50.718;-2.460;2022-10-16T16:05:00;56.30;90.00
74420;DHT22;62855;50.718;-2.460;2022-10-16T16:08:00;56.30;90.00
74420;DHT22;62855;50.718;-2.460;2022-10-16T16:11:02;56.30;90.00
74420;DHT22;62855;50.718;-2.460;2022-10-16T16:14:00;56.30;90.00
74420;DHT22;62855;50.718;-2.460;2022-10-16T16:17:00;56.30;90.00
74420;DHT22;62855;50.718;-2.460;2022-10-16T16:20:00;56.30;91.00
74420;DHT22;62855;50.718;-2.460;2022-10-16T16:23:00;56.48;91.00
74420;DHT22;62855;50.718;-2.460;2022-10-16T16:26:04;56.48;91.00
74420;DHT22;62855;50.718;-2.460;2022-10-16T16:29:01;56.48;91.00
74420;DHT22;62855;50.718;-2.460;2022-10-16T16:32:00;56.48;92.00
74420;DHT22;62855;50.718;-2.460;2022-10-16T16:35:00;56.48;92.00
74420;DHT22;62855;50.718;-2.460;2022-10-16T16:38:00;56.66;92.00
74420;DHT22;62855;50.718;-2.460;2022-10-16T16:41:10;56.66;92.00
74420;DHT22;62855;50.718;-2.460;2022-10-16T16:44:02;56.66;93.00
74420;DHT22;62855;50.718;-2.460;2022-10-16T16:47:01;56.84;93.00
74420;DHT22;62855;50.718;-2.460;2022-10-16T16:50:00;56.84;93.00
74420;DHT22;62855;50.718;-2.460;2022-10-16T16:53:01;56.84;93.00
74420;DHT22;62855;50.718;-2.460;2022-10-16T16:56:02;56.84;94.00
74420;DHT22;62855;50.718;-2.460;2022-10-16T16:59:01;57.02;94.00
74420;DHT22;62855;50.718;-2.460;2022-10-16T17:02:00;57.02;94.00
74420;DHT22;62855;50.718;-2.460;2022-10-16T17:05:00;57.20;94.00
74420;DHT22;62855;50.718;-2.460;2022-10-16T17:08:00;57.20;94.00
74420;DHT22;62855;50.718;-2.460;2022-10-16T17:11:00;57.20;94.00
74420;DHT22;62855;50.718;-2.460;2022-10-16T17:14:01;57.38;95.00
74420;DHT22;62855;50.718;-2.460;2022-10-16T17:17:00;57.38;95.00
74420;DHT22;62855;50.718;-2.460;2022-10-16T17:20:00;57.38;95.00
74420;DHT22;62855;50.718;-2.460;2022-10-16T17:23:00;57.56;95.00
74420;DHT22;62855;50.718;-2.460;2022-10-16T17:26:03;57.56;95.00
74420;DHT22;62855;50.718;-2.460;2022-10-16T17:29:00;57.56;95.00
74420;DHT22;62855;50.718;-2.460;2022-10-16T17:32:00;57.74;95.00
74420;DHT22;62855;50.718;-2.460;2022-10-16T17:35:00;57.74;95.00
74420;DHT22;62855;50.718;-2.460;2022-10-16T17:38:00;57.74;95.00
74420;DHT22;62855;50.718;-2.460;2022-10-16T17:41:09;57.92;95.00
74420;DHT22;62855;50.718;-2.460;2022-10-16T17:44:02;57.92;95.00
74420;DHT22;62855;50.718;-2.460;2022-10-16T17:47:00;57.92;95.00
74420;DHT22;62855;50.718;-2.460;2022-10-16T17:50:00;57.92;95.00
74420;DHT22;62855;50.718;-2.460;2022-10-16T17:53:01;57.92;95.00
74420;DHT22;62855;50.718;-2.460;2022-10-16T17:56:02;57.92;95.00
74420;DHT22;62855;50.718;-2.460;2022-10-16T17:59:01;58.10;95.00
74420;DHT22;62855;50.718;-2.460;2022-10-16T18:02:00;58.10;95.00
74420;DHT22;62855;50.718;-2.460;2022-10-16T18:05:00;58.28;95.00
74420;DHT22;62855;50.718;-2.460;2022-10-16T18:08:00;58.28;95.00
74420;DHT22;62855;50.718;-2.460;2022-10-16T18:11:00;58.46;95.00
74420;DHT22;62855;50.718;-2.460;2022-10-16T18:14:00;58.46;96.00
74420;DHT22;62855;50.718;-2.460;2022-10-16T18:17:00;58.46;96.00
74420;DHT22;62855;50.718;-2.460;2022-10-16T18:20:00;58.64;96.00
74420;DHT22;62855;50.718;-2.460;2022-10-16T18:23:00;58.64;96.00
74420;DHT22;62855;50.718;-2.460;2022-10-16T18:26:00;58.64;96.00
74420;DHT22;62855;50.718;-2.460;2022-10-16T18:29:00;58.64;96.00
74420;DHT22;62855;50.718;-2.460;2022-10-16T18:32:00;58.64;96.00
74420;DHT22;62855;50.718;-2.460;2022-10-16T18:35:01;58.82;96.00
74420;DHT22;62855;50.718;-2.460;2022-10-16T18:38:01;58.82;96.00